createdAt,value
2018-12-17T00:00:21.983Z,1002.63
2018-12-17T00:01:21.975Z,1002.60
2018-12-17T00:02:21.956Z,1002.57
2018-12-17T00:03:21.930Z,1002.60
2018-12-17T00:04:21.956Z,1002.60
2018-12-17T00:05:21.930Z,1002.58
2018-12-17T00:06:21.891Z,1002.59
2018-12-17T00:07:21.886Z,1002.62
2018-12-17T00:08:21.875Z,1002.60
2018-12-17T00:09:21.867Z,1002.57
2018-12-17T00:10:21.899Z,1002.58
2018-12-17T00:11:21.846Z,1002.60
2018-12-17T00:12:21.833Z,1002.60
2018-12-17T00:13:21.858Z,1002.64
2018-12-17T00:14:21.807Z,1002.65
2018-12-17T00:15:21.967Z,1002.60
2018-12-17T00:16:21.828Z,1002.65
2018-12-17T00:17:21.791Z,1002.72
2018-12-17T00:18:21.768Z,1002.63
2018-12-17T00:19:21.756Z,1002.60
2018-12-17T00:20:21.760Z,1002.55
2018-12-17T00:21:21.766Z,1002.53
2018-12-17T00:22:21.756Z,1002.56
2018-12-17T00:23:21.711Z,1002.59
2018-12-17T00:24:21.715Z,1002.60
2018-12-17T00:25:21.688Z,1002.58
2018-12-17T00:26:21.721Z,1002.54
2018-12-17T00:27:21.677Z,1002.58
2018-12-17T00:28:21.666Z,1002.58
2018-12-17T00:29:21.654Z,1002.58
2018-12-17T00:30:21.638Z,1002.55
2018-12-17T00:31:21.640Z,1002.54
2018-12-17T00:32:21.947Z,1002.52
2018-12-17T00:33:21.618Z,1002.55
2018-12-17T00:34:21.596Z,1002.50
2018-12-17T00:35:21.625Z,1002.54
2018-12-17T00:36:21.578Z,1002.50
2018-12-17T00:37:21.586Z,1002.58
2018-12-17T00:38:21.555Z,1002.52
2018-12-17T00:39:21.561Z,1002.49
2018-12-17T00:40:21.538Z,1002.46
2018-12-17T00:41:21.520Z,1002.55
2018-12-17T00:42:21.550Z,1002.57
2018-12-17T00:43:21.508Z,1002.55
2018-12-17T00:44:21.490Z,1002.53
2018-12-17T00:45:21.515Z,1002.57
2018-12-17T00:46:21.469Z,1002.52
2018-12-17T00:47:21.467Z,1002.60
2018-12-17T00:48:21.502Z,1002.61
2018-12-17T00:49:21.435Z,1002.60
2018-12-17T00:50:21.429Z,1002.63
2018-12-17T00:51:21.434Z,1002.62
2018-12-17T00:52:21.446Z,1002.63
2018-12-17T00:53:21.469Z,1002.60
2018-12-17T00:54:21.467Z,1002.67
2018-12-17T00:55:21.375Z,1002.66
2018-12-17T00:56:21.374Z,1002.68
2018-12-17T00:57:21.364Z,1002.70
2018-12-17T00:58:21.371Z,1002.69
2018-12-17T00:59:21.333Z,1002.75
2018-12-17T01:00:21.318Z,1002.67
2018-12-17T01:01:21.321Z,1002.83
2018-12-17T01:02:21.302Z,1002.89
2018-12-17T01:03:21.306Z,1002.88
2018-12-17T01:04:21.298Z,1002.90
2018-12-17T01:05:21.267Z,1002.93
2018-12-17T01:06:21.260Z,1002.98
2018-12-17T01:07:21.239Z,1002.93
2018-12-17T01:08:21.231Z,1002.98
2018-12-17T01:09:21.242Z,1003.01
2018-12-17T01:10:21.218Z,1003.03
2018-12-17T01:11:21.210Z,1003.08
2018-12-17T01:12:21.244Z,1003.01
2018-12-17T01:13:21.183Z,1003.07
2018-12-17T01:14:21.224Z,1003.07
2018-12-17T01:15:21.155Z,1003.01
2018-12-17T01:16:21.160Z,1002.99
2018-12-17T01:17:21.139Z,1003.01
2018-12-17T01:18:21.133Z,1003.07
2018-12-17T01:19:21.113Z,1002.99
2018-12-17T01:20:21.171Z,1003.00
2018-12-17T01:21:21.113Z,1003.01
2018-12-17T01:22:21.079Z,1002.98
2018-12-17T01:23:21.083Z,1002.99
2018-12-17T01:24:21.081Z,1003.07
2018-12-17T01:25:21.095Z,1003.05
2018-12-17T01:26:21.036Z,1002.99
2018-12-17T01:27:21.037Z,1003.09
2018-12-17T01:28:22.359Z,1003.05
2018-12-17T01:29:21.002Z,1003.05
2018-12-17T01:30:21.032Z,1003.10
2018-12-17T01:31:20.990Z,1003.13
2018-12-17T01:32:20.980Z,1003.18
2018-12-17T01:33:20.981Z,1003.19
2018-12-17T01:34:20.952Z,1003.20
2018-12-17T01:35:20.957Z,1003.15
2018-12-17T01:36:20.961Z,1003.24
2018-12-17T01:37:20.918Z,1003.19
2018-12-17T01:38:20.929Z,1003.21
2018-12-17T01:39:20.900Z,1003.23
2018-12-17T01:40:20.891Z,1003.21
2018-12-17T01:41:20.909Z,1003.20
2018-12-17T01:42:20.864Z,1003.27
2018-12-17T01:43:20.857Z,1003.33
2018-12-17T01:44:20.840Z,1003.28
2018-12-17T01:45:20.843Z,1003.28
2018-12-17T01:46:20.848Z,1003.37
2018-12-17T01:47:20.829Z,1003.27
2018-12-17T01:48:20.811Z,1003.33
2018-12-17T01:49:20.790Z,1003.28
2018-12-17T01:50:20.806Z,1003.30
2018-12-17T01:51:20.802Z,1003.28
2018-12-17T01:52:20.764Z,1003.29
2018-12-17T01:53:20.747Z,1003.31
2018-12-17T01:54:20.733Z,1003.28
2018-12-17T01:55:20.729Z,1003.28
2018-12-17T01:56:20.757Z,1003.30
2018-12-17T01:57:20.705Z,1003.33
2018-12-17T01:58:20.696Z,1003.32
2018-12-17T01:59:20.701Z,1003.26
2018-12-17T02:00:20.671Z,1003.22
2018-12-17T02:01:20.664Z,1003.28
2018-12-17T02:02:20.683Z,1003.24
2018-12-17T02:03:20.643Z,1003.30
2018-12-17T02:04:20.630Z,1003.31
2018-12-17T02:05:20.618Z,1003.31
2018-12-17T02:06:20.608Z,1003.31
2018-12-17T02:07:20.605Z,1003.30
2018-12-17T02:08:20.619Z,1003.33
2018-12-17T02:09:20.572Z,1003.30
2018-12-17T02:10:20.569Z,1003.26
2018-12-17T02:11:20.555Z,1003.31
2018-12-17T02:12:20.547Z,1003.32
2018-12-17T02:13:20.568Z,1003.35
2018-12-17T02:14:20.528Z,1003.29
2018-12-17T02:15:20.508Z,1003.34
2018-12-17T02:16:20.513Z,1003.26
2018-12-17T02:17:20.493Z,1003.28
2018-12-17T02:18:20.534Z,1003.32
2018-12-17T02:19:20.477Z,1003.34
2018-12-17T02:20:20.461Z,1003.39
2018-12-17T02:21:20.450Z,1003.36
2018-12-17T02:22:20.475Z,1003.42
2018-12-17T02:23:20.428Z,1003.43
2018-12-17T02:24:20.470Z,1003.45
2018-12-17T02:25:20.406Z,1003.46
2018-12-17T02:26:20.389Z,1003.45
2018-12-17T02:27:20.420Z,1003.43
2018-12-17T02:28:20.388Z,1003.42
2018-12-17T02:29:20.377Z,1003.47
2018-12-17T02:30:20.373Z,1003.52
2018-12-17T02:31:20.342Z,1003.49
2018-12-17T02:32:20.327Z,1003.55
2018-12-17T02:33:20.329Z,1003.56
2018-12-17T02:34:20.348Z,1003.56
2018-12-17T02:35:20.293Z,1003.55
2018-12-17T02:36:20.304Z,1003.52
2018-12-17T02:37:20.279Z,1003.50
2018-12-17T02:38:20.264Z,1003.48
2018-12-17T02:39:20.257Z,1003.52
2018-12-17T02:40:20.259Z,1003.58
2018-12-17T02:41:20.257Z,1003.50
2018-12-17T02:42:20.259Z,1003.52
2018-12-17T02:43:20.215Z,1003.51
2018-12-17T02:44:20.221Z,1003.53
2018-12-17T02:45:20.221Z,1003.46
2018-12-17T02:46:20.182Z,1003.57
2018-12-17T02:47:20.215Z,1003.49
2018-12-17T02:48:20.173Z,1003.58
2018-12-17T02:49:20.143Z,1003.56
2018-12-17T02:50:20.162Z,1003.53
2018-12-17T02:51:20.198Z,1003.63
2018-12-17T02:52:20.114Z,1003.64
2018-12-17T02:53:20.101Z,1003.57
2018-12-17T02:54:20.103Z,1003.66
2018-12-17T02:55:20.089Z,1003.56
2018-12-17T02:56:20.117Z,1003.59
2018-12-17T02:57:20.059Z,1003.59
2018-12-17T02:58:20.052Z,1003.68
2018-12-17T02:59:20.071Z,1003.61
2018-12-17T03:00:20.035Z,1003.64
2018-12-17T03:01:20.043Z,1003.62
2018-12-17T03:02:20.014Z,1003.64
2018-12-17T03:03:20.001Z,1003.70
2018-12-17T03:04:19.980Z,1003.67
2018-12-17T03:05:20.005Z,1003.66
2018-12-17T03:06:19.992Z,1003.65
2018-12-17T03:07:19.961Z,1003.70
2018-12-17T03:08:20.025Z,1003.61
2018-12-17T03:09:19.934Z,1003.66
2018-12-17T03:10:19.929Z,1003.70
2018-12-17T03:11:19.907Z,1003.67
2018-12-17T03:12:19.916Z,1003.66
2018-12-17T03:13:19.897Z,1003.70
2018-12-17T03:14:19.909Z,1003.72
2018-12-17T03:15:19.873Z,1003.75
2018-12-17T03:16:19.854Z,1003.75
2018-12-17T03:17:19.849Z,1003.80
2018-12-17T03:18:19.954Z,1003.69
2018-12-17T03:19:19.897Z,1003.80
2018-12-17T03:20:19.860Z,1003.79
2018-12-17T03:21:19.808Z,1003.79
2018-12-17T03:22:19.793Z,1003.79
2018-12-17T03:23:19.798Z,1003.84
2018-12-17T03:24:19.822Z,1003.78
2018-12-17T03:25:19.759Z,1003.74
2018-12-17T03:26:19.754Z,1003.79
2018-12-17T03:27:19.740Z,1003.77
2018-12-17T03:28:19.732Z,1003.79
2018-12-17T03:29:19.759Z,1003.76
2018-12-17T03:30:19.730Z,1003.82
2018-12-17T03:31:19.752Z,1003.76
2018-12-17T03:32:19.696Z,1003.82
2018-12-17T03:33:19.676Z,1003.78
2018-12-17T03:34:19.779Z,1003.76
2018-12-17T03:35:19.687Z,1003.82
2018-12-17T03:36:19.652Z,1003.74
2018-12-17T03:37:19.651Z,1003.79
2018-12-17T03:38:19.636Z,1003.83
2018-12-17T03:39:19.612Z,1003.79
2018-12-17T03:40:19.628Z,1003.78
2018-12-17T03:41:19.619Z,1003.74
2018-12-17T03:42:19.583Z,1003.79
2018-12-17T03:43:19.587Z,1003.83
2018-12-17T03:44:19.560Z,1003.84
2018-12-17T03:45:19.605Z,1003.86
2018-12-17T03:46:19.558Z,1003.80
2018-12-17T03:47:19.530Z,1003.85
2018-12-17T03:48:19.518Z,1003.90
2018-12-17T03:49:19.571Z,1003.91
2018-12-17T03:50:19.529Z,1003.92
2018-12-17T03:51:19.521Z,1003.92
2018-12-17T03:52:19.521Z,1003.96
2018-12-17T03:53:19.475Z,1003.98
2018-12-17T03:54:19.455Z,1003.99
2018-12-17T03:55:19.460Z,1004.02
2018-12-17T03:56:19.449Z,1004.05
2018-12-17T03:57:19.420Z,1004.02
2018-12-17T03:58:19.451Z,1004.05
2018-12-17T03:59:19.404Z,1004.03
2018-12-17T04:00:19.399Z,1004.10
2018-12-17T04:01:19.408Z,1004.07
2018-12-17T04:02:19.396Z,1004.08
2018-12-17T04:03:19.357Z,1004.08
2018-12-17T04:04:19.352Z,1004.13
2018-12-17T04:05:19.339Z,1004.13
2018-12-17T04:06:19.337Z,1004.16
2018-12-17T04:07:19.359Z,1004.15
2018-12-17T04:08:19.305Z,1004.12
2018-12-17T04:09:19.310Z,1004.22
2018-12-17T04:10:19.328Z,1004.18
2018-12-17T04:11:19.284Z,1004.24
2018-12-17T04:12:19.291Z,1004.25
2018-12-17T04:13:19.281Z,1004.21
2018-12-17T04:14:19.243Z,1004.19
2018-12-17T04:15:19.234Z,1004.32
2018-12-17T04:16:19.246Z,1004.23
2018-12-17T04:17:19.253Z,1004.29
2018-12-17T04:18:19.227Z,1004.29
2018-12-17T04:19:19.186Z,1004.29
2018-12-17T04:20:19.171Z,1004.33
2018-12-17T04:21:19.168Z,1004.31
2018-12-17T04:22:19.177Z,1004.40
2018-12-17T04:23:19.162Z,1004.36
2018-12-17T04:24:19.187Z,1004.40
2018-12-17T04:25:19.149Z,1004.37
2018-12-17T04:26:19.113Z,1004.36
2018-12-17T04:27:19.110Z,1004.36
2018-12-17T04:28:19.107Z,1004.38
2018-12-17T04:29:19.077Z,1004.43
2018-12-17T04:30:19.077Z,1004.49
2018-12-17T04:31:19.069Z,1004.39
2018-12-17T04:32:19.051Z,1004.40
2018-12-17T04:33:19.064Z,1004.43
2018-12-17T04:34:19.024Z,1004.41
2018-12-17T04:35:19.020Z,1004.43
2018-12-17T04:36:19.017Z,1004.48
2018-12-17T04:37:18.995Z,1004.41
2018-12-17T04:38:18.988Z,1004.46
2018-12-17T04:39:18.993Z,1004.53
2018-12-17T04:40:18.966Z,1004.45
2018-12-17T04:41:18.947Z,1004.49
2018-12-17T04:42:18.968Z,1004.48
2018-12-17T04:43:18.955Z,1004.52
2018-12-17T04:44:18.963Z,1004.52
2018-12-17T04:45:18.932Z,1004.50
2018-12-17T04:46:18.929Z,1004.54
2018-12-17T04:47:18.881Z,1004.53
2018-12-17T04:48:18.885Z,1004.51
2018-12-17T04:49:18.900Z,1004.49
2018-12-17T04:50:18.848Z,1004.53
2018-12-17T04:51:18.838Z,1004.54
2018-12-17T04:52:18.828Z,1004.51
2018-12-17T04:53:18.817Z,1004.55
2018-12-17T04:54:18.827Z,1004.58
2018-12-17T04:55:18.834Z,1004.54
2018-12-17T04:56:18.785Z,1004.51
2018-12-17T04:57:18.772Z,1004.54
2018-12-17T04:58:18.772Z,1004.55
2018-12-17T04:59:18.754Z,1004.58
2018-12-17T05:00:18.771Z,1004.55
2018-12-17T05:01:18.732Z,1004.61
2018-12-17T05:02:18.721Z,1004.64
2018-12-17T05:03:18.742Z,1004.65
2018-12-17T05:04:18.696Z,1004.66
2018-12-17T05:05:18.721Z,1004.60
2018-12-17T05:06:18.682Z,1004.64
2018-12-17T05:07:18.671Z,1004.64
2018-12-17T05:08:18.661Z,1004.66
2018-12-17T05:09:18.659Z,1004.64
2018-12-17T05:10:18.672Z,1004.71
2018-12-17T05:11:18.639Z,1004.67
2018-12-17T05:12:18.619Z,1004.69
2018-12-17T05:13:18.609Z,1004.66
2018-12-17T05:14:18.629Z,1004.69
2018-12-17T05:15:18.675Z,1004.73
2018-12-17T05:16:18.571Z,1004.77
2018-12-17T05:17:18.568Z,1004.77
2018-12-17T05:18:18.557Z,1004.81
2018-12-17T05:19:18.539Z,1004.88
2018-12-17T05:20:18.560Z,1004.83
2018-12-17T05:21:18.520Z,1004.84
2018-12-17T05:22:18.516Z,1004.82
2018-12-17T05:23:18.523Z,1004.94
2018-12-17T05:24:18.491Z,1004.93
2018-12-17T05:25:18.475Z,1004.94
2018-12-17T05:26:18.492Z,1005.00
2018-12-17T05:27:18.449Z,1005.03
2018-12-17T05:28:18.454Z,1005.08
2018-12-17T05:29:21.540Z,1005.08
2018-12-17T05:30:18.420Z,1005.08
2018-12-17T05:31:18.446Z,1005.15
2018-12-17T05:32:18.431Z,1005.16
2018-12-17T05:33:18.393Z,1005.17
2018-12-17T05:34:18.388Z,1005.21
2018-12-17T05:35:18.417Z,1005.22
2018-12-17T05:36:18.399Z,1005.23
2018-12-17T05:37:18.349Z,1005.25
2018-12-17T05:38:18.358Z,1005.20
2018-12-17T05:39:18.378Z,1005.27
2018-12-17T05:40:18.330Z,1005.26
2018-12-17T05:41:18.325Z,1005.24
2018-12-17T05:42:18.323Z,1005.23
2018-12-17T05:43:18.301Z,1005.32
2018-12-17T05:44:18.277Z,1005.29
2018-12-17T05:45:18.268Z,1005.30
2018-12-17T05:46:18.251Z,1005.27
2018-12-17T05:47:18.269Z,1005.23
2018-12-17T05:48:18.231Z,1005.25
2018-12-17T05:49:18.231Z,1005.26
2018-12-17T05:50:18.213Z,1005.21
2018-12-17T05:51:18.213Z,1005.21
2018-12-17T05:52:18.242Z,1005.30
2018-12-17T05:53:18.175Z,1005.28
2018-12-17T05:54:18.167Z,1005.29
2018-12-17T05:55:18.197Z,1005.33
2018-12-17T05:56:18.146Z,1005.31
2018-12-17T05:57:18.134Z,1005.33
2018-12-17T05:58:18.156Z,1005.31
2018-12-17T05:59:18.113Z,1005.30
2018-12-17T06:00:18.160Z,1005.31
2018-12-17T06:01:18.097Z,1005.36
2018-12-17T06:02:18.105Z,1005.37
2018-12-17T06:03:18.095Z,1005.38
2018-12-17T06:04:18.074Z,1005.42
2018-12-17T06:05:18.070Z,1005.38
2018-12-17T06:06:18.039Z,1005.41
2018-12-17T06:07:18.066Z,1005.40
2018-12-17T06:08:18.067Z,1005.43
2018-12-17T06:09:18.011Z,1005.40
2018-12-17T06:10:18.019Z,1005.43
2018-12-17T06:11:17.985Z,1005.47
2018-12-17T06:12:17.992Z,1005.48
2018-12-17T06:13:18.007Z,1005.52
2018-12-17T06:14:18.001Z,1005.54
2018-12-17T06:15:17.942Z,1005.48
2018-12-17T06:16:17.938Z,1005.59
2018-12-17T06:17:17.920Z,1005.58
2018-12-17T06:18:17.926Z,1005.63
2018-12-17T06:19:17.932Z,1005.67
2018-12-17T06:20:17.887Z,1005.71
2018-12-17T06:21:17.903Z,1005.66
2018-12-17T06:22:17.882Z,1005.71
2018-12-17T06:23:17.900Z,1005.76
2018-12-17T06:24:17.900Z,1005.66
2018-12-17T06:25:17.853Z,1005.68
2018-12-17T06:26:17.829Z,1005.71
2018-12-17T06:27:17.820Z,1005.68
2018-12-17T06:28:17.825Z,1005.70
2018-12-17T06:29:17.913Z,1005.67
2018-12-17T06:30:17.797Z,1005.69
2018-12-17T06:31:17.795Z,1005.76
2018-12-17T06:32:17.809Z,1005.74
2018-12-17T06:33:17.752Z,1005.70
2018-12-17T06:34:17.770Z,1005.77
2018-12-17T06:35:17.765Z,1005.76
2018-12-17T06:36:17.715Z,1005.75
2018-12-17T06:37:17.716Z,1005.71
2018-12-17T06:38:17.692Z,1005.69
2018-12-17T06:39:17.699Z,1005.72
2018-12-17T06:40:17.701Z,1005.73
2018-12-17T06:41:17.702Z,1005.70
2018-12-17T06:42:17.667Z,1005.74
2018-12-17T06:43:17.636Z,1005.76
2018-12-17T06:44:17.645Z,1005.75
2018-12-17T06:45:17.636Z,1005.78
2018-12-17T06:46:17.607Z,1005.80
2018-12-17T06:47:17.615Z,1005.87
2018-12-17T06:48:17.599Z,1005.81
2018-12-17T06:49:17.593Z,1005.84
2018-12-17T06:50:17.613Z,1005.84
2018-12-17T06:51:17.555Z,1005.88
2018-12-17T06:52:17.543Z,1005.87
2018-12-17T06:53:17.563Z,1005.86
2018-12-17T06:54:17.520Z,1005.93
2018-12-17T06:55:17.573Z,1005.89
2018-12-17T06:56:17.503Z,1005.88
2018-12-17T06:57:17.512Z,1005.92
2018-12-17T06:58:17.478Z,1005.97
2018-12-17T06:59:17.511Z,1005.89
2018-12-17T07:00:17.488Z,1005.95
2018-12-17T07:01:17.474Z,1005.97
2018-12-17T07:02:17.449Z,1005.98
2018-12-17T07:03:17.428Z,1006.01
2018-12-17T07:04:17.421Z,1006.06
2018-12-17T07:05:17.434Z,1006.03
2018-12-17T07:06:17.432Z,1006.08
2018-12-17T07:07:17.383Z,1006.11
2018-12-17T07:08:17.377Z,1006.08
2018-12-17T07:09:17.361Z,1006.09
2018-12-17T07:10:17.382Z,1006.09
2018-12-17T07:11:17.368Z,1006.14
2018-12-17T07:12:17.331Z,1006.14
2018-12-17T07:13:17.356Z,1006.12
2018-12-17T07:14:17.332Z,1006.14
2018-12-17T07:15:17.312Z,1006.16
2018-12-17T07:16:17.343Z,1006.19
2018-12-17T07:17:17.288Z,1006.15
2018-12-17T07:18:17.273Z,1006.19
2018-12-17T07:19:17.254Z,1006.30
2018-12-17T07:20:17.254Z,1006.28
2018-12-17T07:21:17.260Z,1006.26
2018-12-17T07:22:17.263Z,1006.26
2018-12-17T07:23:17.235Z,1006.21
2018-12-17T07:24:17.203Z,1006.25
2018-12-17T07:25:17.202Z,1006.22
2018-12-17T07:26:17.218Z,1006.27
2018-12-17T07:27:17.214Z,1006.30
2018-12-17T07:28:17.171Z,1006.28
2018-12-17T07:29:17.159Z,1006.33
2018-12-17T07:30:17.141Z,1006.30
2018-12-17T07:31:17.173Z,1006.30
2018-12-17T07:32:18.632Z,1006.35
2018-12-17T07:33:17.105Z,1006.37
2018-12-17T07:34:17.218Z,1006.32
2018-12-17T07:35:17.092Z,1006.37
2018-12-17T07:36:17.072Z,1006.34
2018-12-17T07:37:17.089Z,1006.38
2018-12-17T07:38:17.068Z,1006.38
2018-12-17T07:39:17.053Z,1006.40
2018-12-17T07:40:17.031Z,1006.42
2018-12-17T07:41:17.020Z,1006.49
2018-12-17T07:42:17.054Z,1006.46
2018-12-17T07:43:17.005Z,1006.46
2018-12-17T07:44:17.003Z,1006.49
2018-12-17T07:45:16.986Z,1006.48
2018-12-17T07:46:16.966Z,1006.46
2018-12-17T07:47:16.962Z,1006.54
2018-12-17T07:48:17.019Z,1006.51
2018-12-17T07:49:16.950Z,1006.49
2018-12-17T07:50:16.931Z,1006.55
2018-12-17T07:51:16.915Z,1006.55
2018-12-17T07:52:16.943Z,1006.58
2018-12-17T07:53:16.893Z,1006.59
2018-12-17T07:54:16.881Z,1006.59
2018-12-17T07:55:16.870Z,1006.61
2018-12-17T07:56:16.858Z,1006.55
2018-12-17T07:57:16.896Z,1006.54
2018-12-17T07:58:16.846Z,1006.67
2018-12-17T07:59:16.835Z,1006.56
2018-12-17T08:00:16.830Z,1006.59
2018-12-17T08:01:16.826Z,1006.62
2018-12-17T08:02:16.792Z,1006.67
2018-12-17T08:03:16.821Z,1006.67
2018-12-17T08:04:16.787Z,1006.72
2018-12-17T08:05:16.767Z,1006.71
2018-12-17T08:06:16.751Z,1006.68
2018-12-17T08:07:16.756Z,1006.73
2018-12-17T08:08:16.749Z,1006.78
2018-12-17T08:09:16.753Z,1006.72
2018-12-17T08:10:16.706Z,1006.75
2018-12-17T08:11:16.699Z,1006.82
2018-12-17T08:12:16.774Z,1006.70
2018-12-17T08:13:16.712Z,1006.73
2018-12-17T08:14:16.674Z,1006.74
2018-12-17T08:15:16.669Z,1006.77
2018-12-17T08:16:16.670Z,1006.76
2018-12-17T08:17:16.633Z,1006.76
2018-12-17T08:18:16.678Z,1006.82
2018-12-17T08:19:16.644Z,1006.80
2018-12-17T08:20:16.609Z,1006.84
2018-12-17T08:21:16.602Z,1006.84
2018-12-17T08:22:16.591Z,1006.85
2018-12-17T08:23:16.573Z,1006.82
2018-12-17T08:24:16.622Z,1006.78
2018-12-17T08:25:16.549Z,1006.76
2018-12-17T08:26:16.542Z,1006.76
2018-12-17T08:27:16.557Z,1006.79
2018-12-17T08:28:16.531Z,1006.77
2018-12-17T08:29:16.559Z,1006.83
2018-12-17T08:30:16.498Z,1006.74
2018-12-17T08:31:16.494Z,1006.73
2018-12-17T08:32:16.482Z,1006.74
2018-12-17T08:33:16.490Z,1006.71
2018-12-17T08:34:16.478Z,1006.77
2018-12-17T08:35:16.450Z,1006.75
2018-12-17T08:36:16.472Z,1006.76
2018-12-17T08:37:16.425Z,1006.76
2018-12-17T08:38:16.471Z,1006.84
2018-12-17T08:39:16.405Z,1006.84
2018-12-17T08:40:16.412Z,1006.80
2018-12-17T08:41:23.990Z,1006.85
2018-12-17T08:42:16.369Z,1006.87
2018-12-17T08:43:16.365Z,1006.87
2018-12-17T08:44:16.355Z,1006.86
2018-12-17T08:45:16.432Z,1006.97
2018-12-17T08:46:16.325Z,1006.98
2018-12-17T08:47:16.329Z,1007.01
2018-12-17T08:48:16.307Z,1007.05
2018-12-17T08:49:16.291Z,1007.01
2018-12-17T08:50:16.334Z,1007.07
2018-12-17T08:51:16.274Z,1007.05
2018-12-17T08:52:16.258Z,1007.02
2018-12-17T08:53:16.280Z,1007.10
2018-12-17T08:54:16.254Z,1007.05
2018-12-17T08:55:16.233Z,1007.14
2018-12-17T08:56:16.253Z,1007.15
2018-12-17T08:57:16.248Z,1007.18
2018-12-17T08:58:16.192Z,1007.21
2018-12-17T08:59:16.234Z,1007.28
2018-12-17T09:00:16.198Z,1007.19
2018-12-17T09:01:16.172Z,1007.17
2018-12-17T09:02:16.155Z,1007.23
2018-12-17T09:03:16.162Z,1007.20
2018-12-17T09:04:16.128Z,1007.23
2018-12-17T09:05:16.123Z,1007.22
2018-12-17T09:06:16.118Z,1007.30
2018-12-17T09:07:16.126Z,1007.28
2018-12-17T09:08:16.103Z,1007.27
2018-12-17T09:09:16.070Z,1007.22
2018-12-17T09:10:16.203Z,1007.29
2018-12-17T09:11:16.055Z,1007.31
2018-12-17T09:12:16.061Z,1007.31
2018-12-17T09:13:16.024Z,1007.32
2018-12-17T09:14:16.047Z,1007.32
2018-12-17T09:15:16.056Z,1007.26
2018-12-17T09:16:16.042Z,1007.30
2018-12-17T09:17:16.022Z,1007.33
2018-12-17T09:18:15.985Z,1007.33
2018-12-17T09:19:15.970Z,1007.36
2018-12-17T09:20:15.950Z,1007.38
2018-12-17T09:21:16.020Z,1007.41
2018-12-17T09:22:15.961Z,1007.38
2018-12-17T09:23:15.928Z,1007.38
2018-12-17T09:24:15.927Z,1007.40
2018-12-17T09:25:15.903Z,1007.40
2018-12-17T09:26:15.881Z,1007.34
2018-12-17T09:27:15.913Z,1007.42
2018-12-17T09:28:15.869Z,1007.40
2018-12-17T09:29:15.867Z,1007.33
2018-12-17T09:30:18.498Z,1007.38
2018-12-17T09:31:15.830Z,1007.36
2018-12-17T09:32:15.827Z,1007.38
2018-12-17T09:33:15.834Z,1007.48
2018-12-17T09:34:15.877Z,1007.48
2018-12-17T09:35:15.803Z,1007.40
2018-12-17T09:36:15.773Z,1007.48
2018-12-17T09:37:15.762Z,1007.51
2018-12-17T09:38:15.812Z,1007.44
2018-12-17T09:39:15.788Z,1007.49
2018-12-17T09:40:15.731Z,1007.52
2018-12-17T09:41:15.765Z,1007.51
2018-12-17T09:42:15.720Z,1007.56
2018-12-17T09:43:15.770Z,1007.56
2018-12-17T09:44:15.712Z,1007.50
2018-12-17T09:45:15.675Z,1007.56
2018-12-17T09:46:15.673Z,1007.51
2018-12-17T09:47:15.679Z,1007.58
2018-12-17T09:48:15.647Z,1007.60
2018-12-17T09:49:15.650Z,1007.60
2018-12-17T09:50:16.696Z,1007.61
2018-12-17T09:51:19.534Z,1007.59
2018-12-17T09:52:15.636Z,1007.55
2018-12-17T09:53:15.603Z,1007.53
2018-12-17T09:54:15.603Z,1007.53
2018-12-17T09:55:15.580Z,1007.56
2018-12-17T09:56:15.552Z,1007.55
2018-12-17T09:57:15.544Z,1007.56
2018-12-17T09:58:15.594Z,1007.55
2018-12-17T09:59:15.535Z,1007.45
2018-12-17T10:00:15.513Z,1007.49
2018-12-17T10:01:15.497Z,1007.48
2018-12-17T10:02:15.502Z,1007.49
2018-12-17T10:03:15.482Z,1007.41
2018-12-17T10:04:15.488Z,1007.43
2018-12-17T10:05:15.454Z,1007.44
2018-12-17T10:06:15.446Z,1007.44
2018-12-17T10:07:15.448Z,1007.42
2018-12-17T10:08:15.445Z,1007.43
2018-12-17T10:09:15.408Z,1007.43
2018-12-17T10:10:15.404Z,1007.44
2018-12-17T10:11:15.407Z,1007.42
2018-12-17T10:12:15.375Z,1007.35
2018-12-17T10:13:15.407Z,1007.36
2018-12-17T10:14:15.376Z,1007.43
2018-12-17T10:15:15.364Z,1007.37
2018-12-17T10:16:15.333Z,1007.38
2018-12-17T10:17:15.326Z,1007.38
2018-12-17T10:18:15.310Z,1007.41
2018-12-17T10:19:15.315Z,1007.34
2018-12-17T10:20:15.304Z,1007.35
2018-12-17T10:21:15.274Z,1007.31
2018-12-17T10:22:15.311Z,1007.37
2018-12-17T10:23:15.264Z,1007.33
2018-12-17T10:24:15.265Z,1007.37
2018-12-17T10:25:15.232Z,1007.44
2018-12-17T10:26:15.223Z,1007.37
2018-12-17T10:27:16.423Z,1007.34
2018-12-17T10:28:15.205Z,1007.35
2018-12-17T10:29:15.239Z,1007.38
2018-12-17T10:30:15.206Z,1007.30
2018-12-17T10:31:15.172Z,1007.35
2018-12-17T10:32:15.163Z,1007.31
2018-12-17T10:33:15.159Z,1007.28
2018-12-17T10:34:15.164Z,1007.27
2018-12-17T10:35:15.143Z,1007.31
2018-12-17T10:36:15.135Z,1007.31
2018-12-17T10:37:15.101Z,1007.31
2018-12-17T10:38:15.102Z,1007.35
2018-12-17T10:39:15.158Z,1007.35
2018-12-17T10:40:15.094Z,1007.28
2018-12-17T10:41:15.076Z,1007.31
2018-12-17T10:42:15.071Z,1007.30
2018-12-17T10:43:15.060Z,1007.33
2018-12-17T10:44:15.039Z,1007.36
2018-12-17T10:45:15.043Z,1007.34
2018-12-17T10:46:15.015Z,1007.33
2018-12-17T10:47:14.993Z,1007.34
2018-12-17T10:48:14.986Z,1007.32
2018-12-17T10:49:14.975Z,1007.36
2018-12-17T10:50:14.996Z,1007.37
2018-12-17T10:51:14.948Z,1007.45
2018-12-17T10:52:14.964Z,1007.39
2018-12-17T10:53:14.937Z,1007.36
2018-12-17T10:54:15.004Z,1007.33
2018-12-17T10:55:14.908Z,1007.43
2018-12-17T10:56:14.928Z,1007.34
2018-12-17T10:57:14.883Z,1007.34
2018-12-17T10:58:14.924Z,1007.32
2018-12-17T10:59:14.862Z,1007.41
2018-12-17T11:00:14.858Z,1007.33
2018-12-17T11:01:14.890Z,1007.30
2018-12-17T11:02:14.845Z,1007.35
2018-12-17T11:03:14.823Z,1007.35
2018-12-17T11:04:14.821Z,1007.41
2018-12-17T11:05:14.796Z,1007.43
2018-12-17T11:06:14.822Z,1007.47
2018-12-17T11:07:14.777Z,1007.44
2018-12-17T11:08:14.823Z,1007.46
2018-12-17T11:09:14.761Z,1007.48
2018-12-17T11:10:14.750Z,1007.47
2018-12-17T11:11:14.799Z,1007.48
2018-12-17T11:12:14.722Z,1007.42
2018-12-17T11:13:14.776Z,1007.40
2018-12-17T11:14:14.721Z,1007.39
2018-12-17T11:15:14.692Z,1007.46
2018-12-17T11:16:14.684Z,1007.44
2018-12-17T11:17:14.690Z,1007.46
2018-12-17T11:18:14.688Z,1007.40
2018-12-17T11:19:14.679Z,1007.49
2018-12-17T11:20:14.638Z,1007.45
2018-12-17T11:21:14.625Z,1007.50
2018-12-17T11:22:14.619Z,1007.38
2018-12-17T11:23:14.613Z,1007.43
2018-12-17T11:24:14.618Z,1007.46
2018-12-17T11:25:14.590Z,1007.43
2018-12-17T11:26:14.575Z,1007.43
2018-12-17T11:27:14.558Z,1007.40
2018-12-17T11:28:14.550Z,1007.44
2018-12-17T11:29:14.580Z,1007.50
2018-12-17T11:30:14.535Z,1007.46
2018-12-17T11:31:14.517Z,1007.42
2018-12-17T11:32:14.522Z,1007.40
2018-12-17T11:33:14.534Z,1007.46
2018-12-17T11:34:14.487Z,1007.37
2018-12-17T11:35:14.512Z,1007.42
2018-12-17T11:36:14.479Z,1007.40
2018-12-17T11:37:14.461Z,1007.44
2018-12-17T11:38:14.464Z,1007.36
2018-12-17T11:39:14.438Z,1007.42
2018-12-17T11:40:14.461Z,1007.34
2018-12-17T11:41:14.430Z,1007.31
2018-12-17T11:42:14.417Z,1007.34
2018-12-17T11:43:14.386Z,1007.37
2018-12-17T11:44:14.394Z,1007.37
2018-12-17T11:45:14.386Z,1007.37
2018-12-17T11:46:14.358Z,1007.29
2018-12-17T11:47:14.348Z,1007.35
2018-12-17T11:48:14.353Z,1007.32
2018-12-17T11:49:14.335Z,1007.35
2018-12-17T11:50:14.350Z,1007.34
2018-12-17T11:51:14.300Z,1007.36
2018-12-17T11:52:14.310Z,1007.36
2018-12-17T11:53:14.297Z,1007.37
2018-12-17T11:54:14.282Z,1007.34
2018-12-17T11:55:14.274Z,1007.35
2018-12-17T11:56:14.293Z,1007.37
2018-12-17T11:57:14.234Z,1007.34
2018-12-17T11:58:14.228Z,1007.33
2018-12-17T11:59:14.244Z,1007.37
2018-12-17T12:00:14.211Z,1007.36
2018-12-17T12:01:14.228Z,1007.24
2018-12-17T12:02:14.185Z,1007.27
2018-12-17T12:03:14.186Z,1007.32
2018-12-17T12:04:14.160Z,1007.29
2018-12-17T12:05:14.150Z,1007.30